createdAt,value
2023-03-20T00:00:15.813Z,139.90
2023-03-20T00:03:20.208Z,174.80
2023-03-20T00:06:03.527Z,181.80
2023-03-20T00:08:38.639Z,153.00
2023-03-20T00:11:09.309Z,150.30
2023-03-20T00:13:48.525Z,119.40
2023-03-20T00:16:20.692Z,126.20
2023-03-20T00:18:49.886Z,127.00
2023-03-20T00:21:40.187Z,141.50
2023-03-20T00:24:22.020Z,139.90
2023-03-20T00:26:55.388Z,129.80
2023-03-20T00:29:50.309Z,144.70
2023-03-20T00:32:24.128Z,121.30
2023-03-20T00:34:54.092Z,109.40
2023-03-20T00:37:27.418Z,132.10
2023-03-20T00:39:56.713Z,128.60
2023-03-20T00:42:46.050Z,128.90
2023-03-20T00:45:58.386Z,125.00
2023-03-20T00:48:37.749Z,130.30
2023-03-20T00:51:04.953Z,123.50
2023-03-20T00:54:11.264Z,113.10
2023-03-20T00:57:17.734Z,121.30
2023-03-20T01:00:26.132Z,147.60
2023-03-20T01:03:30.154Z,159.10
2023-03-20T01:06:32.733Z,161.60
2023-03-20T01:09:27.142Z,166.80
2023-03-20T01:12:45.391Z,156.70
2023-03-20T01:15:33.408Z,149.80
2023-03-20T01:18:05.889Z,148.70
2023-03-20T01:20:45.452Z,135.80
2023-03-20T01:23:26.858Z,130.20
2023-03-20T01:25:56.657Z,138.70
2023-03-20T01:29:07.768Z,135.40
2023-03-20T01:32:31.386Z,126.90
2023-03-20T01:34:58.496Z,126.40
2023-03-20T01:37:38.669Z,134.90
2023-03-20T01:40:45.965Z,136.20
2023-03-20T01:43:16.858Z,142.90
2023-03-20T01:46:05.673Z,142.30
2023-03-20T01:49:00.148Z,152.20
2023-03-20T01:51:37.072Z,130.10
2023-03-20T01:54:31.189Z,134.60
2023-03-20T01:57:34.309Z,144.10
2023-03-20T02:00:19.343Z,148.30
2023-03-20T02:03:10.196Z,154.10
2023-03-20T02:06:23.851Z,139.00
2023-03-20T02:09:54.152Z,137.70
2023-03-20T02:13:07.976Z,133.10
2023-03-20T02:16:26.337Z,130.00
2023-03-20T02:19:41.027Z,128.30
2023-03-20T02:22:41.396Z,130.30
2023-03-20T02:25:55.730Z,130.90
2023-03-20T02:28:55.054Z,136.40
2023-03-20T02:32:18.974Z,133.50
2023-03-20T02:35:10.766Z,132.20
2023-03-20T02:38:39.701Z,126.90
2023-03-20T02:41:35.131Z,124.40
2023-03-20T02:45:11.562Z,126.40
2023-03-20T02:48:24.691Z,125.20
2023-03-20T02:51:37.320Z,123.30
2023-03-20T02:55:04.059Z,125.50
2023-03-20T02:58:03.142Z,103.80
2023-03-20T03:00:41.351Z,100.30
2023-03-20T03:03:34.035Z,110.00
2023-03-20T03:06:22.288Z,107.40
2023-03-20T03:09:34.367Z,103.70
2023-03-20T03:12:36.819Z,114.80
2023-03-20T03:15:20.732Z,113.20
2023-03-20T03:17:57.076Z,112.90
2023-03-20T03:21:30.125Z,112.80
2023-03-20T03:24:40.732Z,104.70
2023-03-20T03:27:36.854Z,108.90
2023-03-20T03:30:47.190Z,108.50
2023-03-20T03:34:10.601Z,112.80
2023-03-20T03:37:30.676Z,109.10
2023-03-20T03:40:07.563Z,109.70
2023-03-20T03:42:52.039Z,107.30
2023-03-20T03:45:46.181Z,112.90
2023-03-20T03:49:09.566Z,113.30
2023-03-20T03:52:21.914Z,126.40
2023-03-20T03:55:14.648Z,116.70
2023-03-20T03:58:27.817Z,120.40
2023-03-20T04:01:13.231Z,126.30
2023-03-20T04:03:56.201Z,114.90
2023-03-20T04:07:37.192Z,116.70
2023-03-20T04:10:20.894Z,104.00
2023-03-20T04:12:58.113Z,99.40
2023-03-20T04:16:16.901Z,95.40
2023-03-20T04:19:03.800Z,90.60
2023-03-20T04:21:46.417Z,95.40
2023-03-20T04:24:41.109Z,85.20
2023-03-20T04:27:57.473Z,81.50
2023-03-20T04:31:20.539Z,83.80
2023-03-20T04:34:42.178Z,80.80
2023-03-20T04:38:04.676Z,78.10
2023-03-20T04:41:24.047Z,81.40
2023-03-20T04:44:27.121Z,88.70
2023-03-20T04:47:36.946Z,81.70
2023-03-20T04:50:08.696Z,82.50
2023-03-20T04:53:28.202Z,84.50
2023-03-20T04:56:50.929Z,84.10
2023-03-20T04:59:30.697Z,87.10
2023-03-20T05:02:24.718Z,85.10
2023-03-20T05:05:47.655Z,85.40
2023-03-20T05:08:55.396Z,88.00
2023-03-20T05:12:21.323Z,78.90
2023-03-20T05:15:29.292Z,89.50
2023-03-20T05:19:06.630Z,89.90
2023-03-20T05:22:52.402Z,86.90
2023-03-20T05:26:54.878Z,91.10
2023-03-20T05:30:43.583Z,89.10
2023-03-20T05:34:41.019Z,78.80
2023-03-20T05:38:39.011Z,80.10
2023-03-20T05:42:30.517Z,83.40
2023-03-20T05:46:30.732Z,77.90
2023-03-20T05:50:13.187Z,80.90
2023-03-20T05:54:01.301Z,88.40
2023-03-20T05:58:00.636Z,81.00
2023-03-20T06:01:46.574Z,76.00
2023-03-20T06:05:37.275Z,80.00
2023-03-20T06:09:14.085Z,79.00
2023-03-20T06:13:02.238Z,74.40
2023-03-20T06:16:43.918Z,77.20
2023-03-20T06:20:25.950Z,70.10
2023-03-20T06:23:46.887Z,80.90
2023-03-20T06:27:40.728Z,80.20
2023-03-20T06:31:19.222Z,81.20
2023-03-20T06:35:07.013Z,77.20
2023-03-20T06:38:49.146Z,79.10
2023-03-20T06:42:37.363Z,81.00
2023-03-20T06:46:25.869Z,80.90
2023-03-20T06:50:08.177Z,84.40
2023-03-20T06:53:57.139Z,82.50
2023-03-20T06:57:45.335Z,77.90
2023-03-20T07:01:25.050Z,83.20
2023-03-20T07:04:54.624Z,77.20
2023-03-20T07:08:41.352Z,69.70
2023-03-20T07:12:29.223Z,74.00
2023-03-20T07:16:14.788Z,72.20
2023-03-20T07:19:43.155Z,68.20
2023-03-20T07:23:32.520Z,68.80
2023-03-20T07:27:20.207Z,68.90
2023-03-20T07:30:30.473Z,63.70
2023-03-20T07:33:27.430Z,64.90
2023-03-20T07:37:09.875Z,63.90
2023-03-20T07:41:16.857Z,58.40
2023-03-20T07:45:19.211Z,52.00
2023-03-20T07:49:08.321Z,51.20
2023-03-20T07:53:00.469Z,48.20
2023-03-20T07:56:54.877Z,45.70
2023-03-20T08:00:44.970Z,45.50
2023-03-20T08:04:32.684Z,42.90
2023-03-20T08:08:00.904Z,39.60
2023-03-20T08:11:34.478Z,35.00
2023-03-20T08:15:22.975Z,35.70
2023-03-20T08:18:54.266Z,35.50
2023-03-20T08:22:42.598Z,34.30
2023-03-20T08:26:26.752Z,31.70
2023-03-20T08:30:05.935Z,29.40
2023-03-20T08:33:37.678Z,32.80
2023-03-20T08:37:26.177Z,32.40
2023-03-20T08:41:14.179Z,32.50
2023-03-20T08:45:02.504Z,26.70
2023-03-20T08:48:54.893Z,26.40
2023-03-20T08:52:46.324Z,27.80
2023-03-20T08:56:35.615Z,27.60
2023-03-20T09:00:18.928Z,23.90
2023-03-20T09:04:05.911Z,23.30
2023-03-20T09:07:55.657Z,27.00
2023-03-20T09:11:43.627Z,24.40
2023-03-20T09:15:35.465Z,26.60
2023-03-20T09:19:26.735Z,27.50
2023-03-20T09:22:45.375Z,27.60
2023-03-20T09:26:21.948Z,24.30
2023-03-20T09:29:31.946Z,24.60
2023-03-20T09:33:23.464Z,25.60
2023-03-20T09:37:12.164Z,26.40
2023-03-20T09:41:11.773Z,24.50
2023-03-20T09:45:34.799Z,25.10
2023-03-20T09:49:57.638Z,26.40
2023-03-20T09:53:52.878Z,30.30
2023-03-20T09:58:08.985Z,27.50
2023-03-20T10:02:00.649Z,29.40
2023-03-20T10:05:30.712Z,25.20
2023-03-20T10:09:22.181Z,20.80
2023-03-20T10:13:17.861Z,22.70
2023-03-20T10:17:11.798Z,22.20
2023-03-20T10:21:05.528Z,20.40
2023-03-20T10:25:14.645Z,17.80
2023-03-20T10:29:02.858Z,16.80
2023-03-20T10:32:50.336Z,18.00
2023-03-20T10:36:50.566Z,22.40
2023-03-20T10:40:40.861Z,21.00
2023-03-20T10:44:44.906Z,22.70
2023-03-20T10:48:33.244Z,20.50
2023-03-20T10:52:26.737Z,21.80
2023-03-20T10:56:17.027Z,23.60
2023-03-20T11:00:03.015Z,23.50
2023-03-20T11:03:49.860Z,21.00
2023-03-20T11:07:40.813Z,24.00
2023-03-20T11:11:29.521Z,24.20
2023-03-20T11:15:17.915Z,23.60
2023-03-20T11:19:05.943Z,26.20
2023-03-20T11:22:59.862Z,24.30
2023-03-20T11:26:53.591Z,26.10
2023-03-20T11:31:03.204Z,26.90
2023-03-20T11:35:11.268Z,27.70
2023-03-20T11:39:17.206Z,27.40
2023-03-20T11:42:52.035Z,26.20
2023-03-20T11:46:40.897Z,26.90
2023-03-20T11:50:28.459Z,25.30
2023-03-20T11:54:15.898Z,24.50
2023-03-20T11:58:10.967Z,22.80
2023-03-20T12:01:41.650Z,26.10
2023-03-20T12:05:30.873Z,28.70
2023-03-20T12:09:20.969Z,21.80
2023-03-20T12:13:04.915Z,23.10
2023-03-20T12:16:52.977Z,22.10
2023-03-20T12:20:41.785Z,22.00
2023-03-20T12:24:07.003Z,23.10
2023-03-20T12:28:03.916Z,23.70
2023-03-20T12:31:52.756Z,21.80
2023-03-20T12:35:46.688Z,22.10
2023-03-20T12:39:12.154Z,21.90
2023-03-20T12:42:58.809Z,21.20
2023-03-20T12:46:24.301Z,23.70
2023-03-20T12:50:37.055Z,20.20
2023-03-20T12:54:28.631Z,17.00
2023-03-20T12:58:19.916Z,17.30
2023-03-20T13:02:11.711Z,15.60
2023-03-20T13:06:14.411Z,16.00
2023-03-20T13:09:59.423Z,16.10
2023-03-20T13:13:50.484Z,16.30
2023-03-20T13:18:08.868Z,16.10
2023-03-20T13:22:01.139Z,15.70
2023-03-20T13:25:53.207Z,15.50
2023-03-20T13:29:44.305Z,8.00
2023-03-20T13:33:56.918Z,9.50
2023-03-20T13:38:10.882Z,11.40
2023-03-20T13:42:17.840Z,13.00
2023-03-20T13:46:15.484Z,18.00
2023-03-20T13:50:34.069Z,7.40
2023-03-20T13:54:31.423Z,6.30
2023-03-20T13:58:12.368Z,6.20
2023-03-20T14:02:05.272Z,7.00
2023-03-20T14:05:45.338Z,8.70
2023-03-20T14:09:38.308Z,6.70
2023-03-20T14:13:30.514Z,6.50
2023-03-20T14:17:18.681Z,6.10
2023-03-20T14:21:12.076Z,8.60
2023-03-20T14:25:06.308Z,6.40
2023-03-20T14:28:55.821Z,6.30
2023-03-20T14:32:43.954Z,5.00
2023-03-20T14:36:32.480Z,7.80
2023-03-20T14:40:34.587Z,6.50
2023-03-20T14:44:25.442Z,9.20
2023-03-20T14:48:23.104Z,10.20
2023-03-20T14:52:17.372Z,13.90
2023-03-20T14:56:30.043Z,12.10
2023-03-20T15:00:22.305Z,16.20
2023-03-20T15:04:18.951Z,18.20
2023-03-20T15:07:59.589Z,19.80
2023-03-20T15:11:49.936Z,17.10
2023-03-20T15:15:52.607Z,20.80
2023-03-20T15:19:46.113Z,20.20
2023-03-20T15:23:35.121Z,25.20
2023-03-20T15:26:51.774Z,36.50
2023-03-20T15:30:40.065Z,24.00
2023-03-20T15:34:33.951Z,27.30
2023-03-20T15:38:21.866Z,24.60
2023-03-20T15:42:04.932Z,29.50
2023-03-20T15:45:38.909Z,34.90
2023-03-20T15:49:22.678Z,31.00
2023-03-20T15:53:36.443Z,29.00
2023-03-20T15:57:26.946Z,28.50
2023-03-20T16:01:21.834Z,33.50
2023-03-20T16:05:06.088Z,28.60
2023-03-20T16:08:55.032Z,31.30
2023-03-20T16:12:49.234Z,32.10
2023-03-20T16:16:39.342Z,32.00
2023-03-20T16:20:09.793Z,31.60
2023-03-20T16:23:44.013Z,29.60
2023-03-20T16:27:33.441Z,32.90
2023-03-20T16:31:25.527Z,32.70
2023-03-20T16:35:17.824Z,38.00
2023-03-20T16:39:21.498Z,34.40
2023-03-20T16:43:08.370Z,34.90
2023-03-20T16:46:56.872Z,37.30
2023-03-20T16:50:45.240Z,34.70
2023-03-20T16:54:29.314Z,36.50
2023-03-20T16:57:59.048Z,39.20
2023-03-20T17:01:56.363Z,36.10
2023-03-20T17:05:45.346Z,38.80
2023-03-20T17:09:36.511Z,39.20
2023-03-20T17:13:25.082Z,32.40
2023-03-20T17:17:05.497Z,36.20
2023-03-20T17:21:00.013Z,37.60
2023-03-20T17:24:46.851Z,35.00
2023-03-20T17:28:36.325Z,37.60
2023-03-20T17:32:25.175Z,41.80
2023-03-20T17:36:13.275Z,38.20
2023-03-20T17:39:59.544Z,39.80
2023-03-20T17:43:50.524Z,38.80
2023-03-20T17:47:39.332Z,40.50
2023-03-20T17:51:30.779Z,79.20
2023-03-20T17:54:58.762Z,62.20
2023-03-20T17:58:47.244Z,60.00
2023-03-20T18:02:20.123Z,57.40
2023-03-20T18:06:10.118Z,51.90
2023-03-20T18:09:41.429Z,58.50
2023-03-20T18:13:29.918Z,60.10
2023-03-20T18:17:20.807Z,67.50
2023-03-20T18:21:11.721Z,62.00
2023-03-20T18:25:04.033Z,62.30
2023-03-20T18:29:05.391Z,52.60
2023-03-20T18:32:59.628Z,51.30
2023-03-20T18:36:43.683Z,47.90
2023-03-20T18:40:12.097Z,82.20
2023-03-20T18:44:00.298Z,61.00
2023-03-20T18:47:52.553Z,61.10
2023-03-20T18:51:41.725Z,51.30
2023-03-20T18:55:32.163Z,45.00
2023-03-20T18:59:08.300Z,44.10
2023-03-20T19:03:07.008Z,40.80
2023-03-20T19:06:58.150Z,41.50
2023-03-20T19:10:47.577Z,44.20
2023-03-20T19:18:54.042Z,45.60
2023-03-20T19:22:42.886Z,42.20
2023-03-20T19:26:32.786Z,40.90
2023-03-20T19:30:23.636Z,42.00
2023-03-20T19:34:47.219Z,42.50
2023-03-20T19:38:25.668Z,42.40
2023-03-20T19:42:48.791Z,45.30
2023-03-20T19:46:43.193Z,75.30
2023-03-20T19:50:41.295Z,77.70
2023-03-20T19:54:53.002Z,52.50
2023-03-20T19:58:43.373Z,55.80
2023-03-20T20:02:23.854Z,46.60
2023-03-20T20:06:22.156Z,43.20
2023-03-20T20:09:54.490Z,51.90
2023-03-20T20:13:02.701Z,49.70
2023-03-20T20:17:24.626Z,51.90
2023-03-20T20:25:23.117Z,51.20
2023-03-20T20:29:11.528Z,56.90
2023-03-20T20:33:05.202Z,56.90
2023-03-20T20:41:01.940Z,62.50
2023-03-20T20:44:50.545Z,63.30
2023-03-20T20:48:39.981Z,61.10
2023-03-20T20:51:48.131Z,61.70
2023-03-20T20:55:35.512Z,59.70
2023-03-20T20:59:24.424Z,53.20
2023-03-20T21:03:13.060Z,55.10
2023-03-20T21:07:09.887Z,51.10
2023-03-20T21:10:59.771Z,50.20
2023-03-20T21:14:49.089Z,45.70
2023-03-20T21:18:41.756Z,52.10
2023-03-20T21:26:44.584Z,44.20
2023-03-20T21:30:11.526Z,46.30
2023-03-20T21:34:00.632Z,46.50
2023-03-20T21:50:37.132Z,47.70
2023-03-20T22:02:24.888Z,46.90
2023-03-20T22:11:24.905Z,44.70
2023-03-20T22:24:21.906Z,45.10
2023-03-20T22:29:06.970Z,50.30
2023-03-20T22:46:45.241Z,47.00
2023-03-20T22:50:55.436Z,48.30
2023-03-20T22:55:24.164Z,45.10
2023-03-20T22:59:54.094Z,51.80
2023-03-20T23:15:27.082Z,49.90
2023-03-20T23:19:54.353Z,48.20
2023-03-20T23:24:44.805Z,49.80
2023-03-20T23:28:56.392Z,45.20
2023-03-20T23:32:49.416Z,52.20
2023-03-20T23:36:36.844Z,44.50
2023-03-20T23:40:29.202Z,47.20
2023-03-20T23:44:28.109Z,44.50
2023-03-20T23:48:36.165Z,45.10
2023-03-20T23:52:34.307Z,45.50
2023-03-20T23:56:46.619Z,46.30
